createdAt,value
2019-03-26T00:01:41.102Z,101130.24
2019-03-26T00:06:45.460Z,101137.33
2019-03-26T00:11:49.753Z,101137.33
2019-03-26T00:16:54.045Z,101150.39
2019-03-26T00:21:58.356Z,101159.31
2019-03-26T00:27:02.675Z,101157.89
2019-03-26T00:32:07.035Z,101164.69
2019-03-26T00:37:11.378Z,101163.56
2019-03-26T00:42:15.671Z,101174.53
2019-03-26T00:47:19.983Z,101174.53
2019-03-26T00:52:24.374Z,101187.02
2019-03-26T00:57:28.702Z,101183.17
2019-03-26T01:02:33.117Z,101180.22
2019-03-26T01:07:37.559Z,101180.22
2019-03-26T01:12:41.918Z,101190.38
2019-03-26T01:17:46.209Z,101195.85
2019-03-26T01:22:50.553Z,101188.67
2019-03-26T01:27:54.912Z,101188.67
2019-03-26T01:32:59.186Z,101185.41
2019-03-26T01:38:03.595Z,101186.87
2019-03-26T01:43:07.916Z,101190.52
2019-03-26T01:48:12.257Z,101190.84
2019-03-26T01:53:16.598Z,101190.84
2019-03-26T01:58:20.886Z,101192.84
2019-03-26T02:03:25.260Z,101192.84
2019-03-26T02:08:29.628Z,101201.11
2019-03-26T02:13:33.938Z,101204.38
2019-03-26T02:18:38.317Z,101204.38
2019-03-26T02:23:42.610Z,101199.19
2019-03-26T02:28:46.916Z,101199.19
2019-03-26T02:33:51.402Z,101209.93
2019-03-26T02:38:55.711Z,101206.33
2019-03-26T02:44:00.072Z,101205.95
2019-03-26T02:49:04.396Z,101205.95
2019-03-26T02:54:08.741Z,101214.55
2019-03-26T02:59:13.066Z,101212.94
2019-03-26T03:04:17.404Z,101213.15
2019-03-26T03:09:21.731Z,101213.15
2019-03-26T03:14:26.204Z,101214.77
2019-03-26T03:19:30.513Z,101216.48
2019-03-26T03:24:34.923Z,101211.81
2019-03-26T03:29:39.292Z,101212.50
2019-03-26T03:34:43.714Z,101225.27
2019-03-26T03:39:48.049Z,101233.59
2019-03-26T03:44:53.264Z,101233.59
2019-03-26T03:49:57.674Z,101236.75
2019-03-26T03:55:02.047Z,101237.98
2019-03-26T04:00:08.101Z,101237.98
2019-03-26T04:05:12.434Z,101239.87
2019-03-26T04:10:16.828Z,101240.94
2019-03-26T04:15:21.791Z,101252.23
2019-03-26T04:20:26.115Z,101251.96
2019-03-26T04:25:30.400Z,101260.97
2019-03-26T04:30:34.801Z,101255.19
2019-03-26T04:35:39.098Z,101257.49
2019-03-26T04:40:43.433Z,101263.23
2019-03-26T04:45:47.716Z,101264.89
2019-03-26T04:50:52.008Z,101265.26
2019-03-26T04:55:56.294Z,101265.36
2019-03-26T05:01:00.713Z,101266.90
2019-03-26T05:06:05.041Z,101264.37
2019-03-26T05:11:09.362Z,101270.80
2019-03-26T05:16:13.692Z,101273.58
2019-03-26T05:21:18.006Z,101280.00
2019-03-26T05:26:22.391Z,101281.41
2019-03-26T05:31:26.699Z,101285.63
2019-03-26T05:36:31.045Z,101294.25
2019-03-26T05:41:35.379Z,101306.89
2019-03-26T05:46:39.710Z,101289.08
2019-03-26T05:51:44.049Z,101292.78
2019-03-26T05:56:48.388Z,101292.78
2019-03-26T06:01:52.714Z,101298.14
2019-03-26T06:07:04.838Z,101288.95
2019-03-26T06:12:03.154Z,101277.85
2019-03-26T06:17:07.515Z,101275.08
2019-03-26T06:22:11.839Z,101273.83
2019-03-26T06:27:16.139Z,101286.28
2019-03-26T06:32:20.597Z,101277.37
2019-03-26T06:37:24.915Z,101288.19
2019-03-26T06:42:29.224Z,101295.38
2019-03-26T06:47:33.525Z,101309.16
2019-03-26T06:52:37.838Z,101311.08
2019-03-26T06:57:42.243Z,101325.34
2019-03-26T07:02:46.584Z,101325.34
2019-03-26T07:07:50.896Z,101330.80
2019-03-26T07:12:55.262Z,101331.25
2019-03-26T07:17:59.599Z,101339.39
2019-03-26T07:23:03.873Z,101333.73
2019-03-26T07:28:08.185Z,101349.72
2019-03-26T07:33:12.516Z,101351.25
2019-03-26T07:38:16.825Z,101364.18
2019-03-26T07:43:21.176Z,101364.66
2019-03-26T07:48:25.479Z,101374.34
2019-03-26T07:53:29.840Z,101366.95
2019-03-26T07:58:34.185Z,101373.59
2019-03-26T08:03:38.730Z,101403.86
2019-03-26T08:08:43.065Z,101403.27
2019-03-26T08:13:47.459Z,101406.58
2019-03-26T08:18:51.760Z,101406.58
2019-03-26T08:23:56.275Z,101378.95
2019-03-26T08:29:01.033Z,101381.00
2019-03-26T08:34:05.600Z,101381.00
2019-03-26T08:39:09.969Z,101387.45
2019-03-26T08:44:14.310Z,101373.23
2019-03-26T08:49:18.700Z,101373.38
2019-03-26T08:54:23.069Z,101373.38
2019-03-26T08:59:27.397Z,101379.57
2019-03-26T09:04:31.682Z,101378.16
2019-03-26T09:09:36.075Z,101378.34
2019-03-26T09:14:40.410Z,101370.13
2019-03-26T09:19:44.733Z,101370.13
2019-03-26T09:24:49.087Z,101372.72
2019-03-26T09:29:53.415Z,101382.52
2019-03-26T09:34:57.734Z,101374.85
2019-03-26T09:40:02.072Z,101374.85
2019-03-26T09:45:07.681Z,101369.30
2019-03-26T09:50:12.014Z,101363.42
2019-03-26T09:55:16.328Z,101357.84
2019-03-26T10:00:20.618Z,101342.13
2019-03-26T10:05:24.909Z,101335.14
2019-03-26T10:10:29.197Z,101319.98
2019-03-26T10:15:33.485Z,101319.98
2019-03-26T10:20:37.802Z,101309.83
2019-03-26T10:25:42.091Z,101318.45
2019-03-26T10:30:46.466Z,101318.45
2019-03-26T10:35:50.755Z,101296.39
2019-03-26T10:40:55.059Z,101301.86
2019-03-26T10:45:59.475Z,101305.59
2019-03-26T10:51:03.797Z,101306.06
2019-03-26T10:56:08.121Z,101293.05
2019-03-26T11:01:12.419Z,101296.81
2019-03-26T11:06:16.733Z,101283.47
2019-03-26T11:11:21.047Z,101288.35
2019-03-26T11:16:25.406Z,101282.32
2019-03-26T11:21:29.713Z,101282.42
2019-03-26T11:26:34.039Z,101282.42
2019-03-26T11:31:38.382Z,101285.58
2019-03-26T11:36:42.713Z,101293.33
2019-03-26T11:41:47.059Z,101292.53
2019-03-26T11:46:51.342Z,101299.91
2019-03-26T11:51:55.627Z,101297.84
2019-03-26T11:56:59.979Z,101283.28
2019-03-26T12:02:05.774Z,101272.08
2019-03-26T12:07:10.070Z,101267.00
2019-03-26T12:12:14.364Z,101267.00
2019-03-26T12:17:18.664Z,101252.48
2019-03-26T12:22:22.956Z,101245.39
2019-03-26T12:27:27.286Z,101246.03
2019-03-26T12:32:31.562Z,101246.03
2019-03-26T12:37:35.874Z,101249.67
2019-03-26T12:42:40.177Z,101234.73
2019-03-26T12:47:44.458Z,101234.73
2019-03-26T12:52:48.767Z,101272.45
2019-03-26T12:57:53.098Z,101239.02
2019-03-26T13:02:57.396Z,101233.83
2019-03-26T13:08:01.674Z,101233.83
2019-03-26T13:13:05.967Z,101229.71
2019-03-26T13:18:11.318Z,101222.24
2019-03-26T13:23:15.758Z,101222.24
2019-03-26T13:28:20.031Z,101209.70
2019-03-26T13:33:24.316Z,101200.97
2019-03-26T13:38:28.624Z,101200.97
2019-03-26T13:43:32.940Z,101193.22
2019-03-26T13:48:37.262Z,101194.45
2019-03-26T13:53:41.639Z,101196.18
2019-03-26T13:58:45.947Z,101200.98
2019-03-26T14:03:50.260Z,101192.28
2019-03-26T14:08:54.552Z,101192.28
2019-03-26T14:13:58.872Z,101201.27
2019-03-26T14:19:03.206Z,101203.16
2019-03-26T14:24:07.558Z,101196.39
2019-03-26T14:29:11.966Z,101190.92
2019-03-26T14:34:16.260Z,101184.42
2019-03-26T14:39:20.586Z,101188.24
2019-03-26T14:44:24.903Z,101194.08
2019-03-26T14:49:29.189Z,101194.48
2019-03-26T14:54:33.485Z,101196.57
2019-03-26T14:59:37.804Z,101196.57
2019-03-26T15:04:42.223Z,101202.30
2019-03-26T15:09:46.663Z,101202.30
2019-03-26T15:14:51.044Z,101221.19
2019-03-26T15:19:55.419Z,101210.84
2019-03-26T15:24:59.782Z,101210.84
2019-03-26T15:30:04.411Z,101207.58
2019-03-26T15:35:08.854Z,101207.58
2019-03-26T15:40:13.255Z,101209.30
2019-03-26T15:45:17.602Z,101216.70
2019-03-26T15:50:44.769Z,101218.42
2019-03-26T15:55:49.112Z,101229.91
2019-03-26T16:00:53.450Z,101211.05
2019-03-26T16:05:57.784Z,101225.69
2019-03-26T16:11:02.251Z,101225.69
2019-03-26T16:16:06.652Z,101235.77
2019-03-26T16:21:10.973Z,101232.78
2019-03-26T16:26:15.344Z,101234.98
2019-03-26T16:31:19.686Z,101228.59
2019-03-26T16:36:24.101Z,101235.09
2019-03-26T16:41:28.623Z,101235.95
2019-03-26T16:46:36.255Z,101231.48
2019-03-26T16:51:39.148Z,101231.48
2019-03-26T16:56:43.488Z,101239.26
2019-03-26T17:01:47.777Z,101228.32
2019-03-26T17:06:52.121Z,101238.27
2019-03-26T17:12:03.153Z,101249.97
2019-03-26T17:17:02.515Z,101248.15
2019-03-26T17:22:06.910Z,101248.15
2019-03-26T17:27:11.258Z,101250.73
2019-03-26T17:32:15.590Z,101250.73
2019-03-26T17:37:19.920Z,101252.35
2019-03-26T17:42:24.283Z,101252.35
2019-03-26T17:47:28.699Z,101255.45
2019-03-26T17:52:33.114Z,101255.45
2019-03-26T17:57:37.438Z,101265.99
2019-03-26T18:02:41.773Z,101270.17
2019-03-26T18:07:46.097Z,101274.42
2019-03-26T18:12:50.474Z,101274.42
2019-03-26T18:17:54.816Z,101285.91
2019-03-26T18:22:59.161Z,101285.91
2019-03-26T18:28:03.486Z,101284.72
2019-03-26T18:33:07.819Z,101294.59
2019-03-26T18:38:14.756Z,101301.00
2019-03-26T18:43:18.231Z,101293.60
2019-03-26T18:48:22.578Z,101302.22
2019-03-26T18:53:27.006Z,101309.80
2019-03-26T18:58:31.326Z,101311.84
2019-03-26T19:03:35.813Z,101315.66
2019-03-26T19:08:40.236Z,101315.66
2019-03-26T19:13:46.193Z,101324.34
2019-03-26T19:18:50.517Z,101324.34
2019-03-26T19:24:04.168Z,101341.17
2019-03-26T19:29:00.951Z,101341.17
2019-03-26T19:34:05.372Z,101352.00
2019-03-26T19:39:10.045Z,101354.50
2019-03-26T19:44:14.532Z,101347.69
2019-03-26T19:49:18.870Z,101351.11
2019-03-26T19:54:23.178Z,101354.77
2019-03-26T19:59:27.535Z,101354.77
2019-03-26T20:04:31.873Z,101371.50
2019-03-26T20:09:36.224Z,101380.11
2019-03-26T20:14:40.549Z,101380.11
2019-03-26T20:19:45.153Z,101383.31
2019-03-26T20:24:49.422Z,101390.70
2019-03-26T20:29:53.987Z,101398.15
2019-03-26T20:34:58.409Z,101404.49
2019-03-26T20:40:02.733Z,101404.41
2019-03-26T20:45:08.103Z,101411.18
2019-03-26T20:50:13.211Z,101413.29
2019-03-26T20:55:20.037Z,101416.37
2019-03-26T21:00:35.424Z,101426.09
2019-03-26T21:05:39.868Z,101431.09
2019-03-26T21:10:44.277Z,101431.09
2019-03-26T21:15:57.049Z,101432.61
2019-03-26T21:20:54.619Z,101432.27
2019-03-26T21:25:58.942Z,101430.34
2019-03-26T21:31:03.390Z,101439.05
2019-03-26T21:36:07.717Z,101442.33
2019-03-26T21:41:12.012Z,101442.71
2019-03-26T21:46:16.307Z,101446.64
2019-03-26T21:51:20.634Z,101446.64
2019-03-26T21:56:24.942Z,101447.70
2019-03-26T22:01:29.264Z,101452.70
2019-03-26T22:06:33.557Z,101455.19
2019-03-26T22:11:49.154Z,101464.52
2019-03-26T22:16:43.882Z,101464.52
2019-03-26T22:21:48.276Z,101475.75
2019-03-26T22:26:52.571Z,101480.36
2019-03-26T22:31:56.873Z,101474.20
2019-03-26T22:37:01.170Z,101484.39
2019-03-26T22:42:05.511Z,101500.13
2019-03-26T22:47:09.812Z,101500.52
2019-03-26T22:52:14.209Z,101505.02
2019-03-26T22:57:18.514Z,101505.02
2019-03-26T23:02:22.945Z,101515.18
2019-03-26T23:07:27.302Z,101524.20
2019-03-26T23:12:31.626Z,101524.20
2019-03-26T23:17:35.966Z,101527.27
2019-03-26T23:22:40.290Z,101528.50
2019-03-26T23:27:44.613Z,101528.98
2019-03-26T23:32:48.906Z,101528.98
2019-03-26T23:37:53.209Z,101534.42
2019-03-26T23:42:57.538Z,101534.42
2019-03-26T23:48:01.877Z,101542.68
2019-03-26T23:53:06.189Z,101542.20
2019-03-26T23:58:10.529Z,101542.20
